sensor_id;sensor_type;location;lat;lon;timestamp;P1;durP1;ratioP1;P2;durP2;ratioP2
6479;SDS011;71753;48.772;9.148;2023-11-22T00:01:48;8.97;;;4.60;;
6479;SDS011;71753;48.772;9.148;2023-11-22T00:04:15;9.33;;;5.13;;
6479;SDS011;71753;48.772;9.148;2023-11-22T00:06:42;9.33;;;5.10;;
6479;SDS011;71753;48.772;9.148;2023-11-22T00:09:09;5.33;;;3.50;;
6479;SDS011;71753;48.772;9.148;2023-11-22T00:11:35;4.57;;;3.03;;
6479;SDS011;71753;48.772;9.148;2023-11-22T00:14:02;3.80;;;2.53;;
6479;SDS011;71753;48.772;9.148;2023-11-22T00:16:29;3.17;;;2.40;;
6479;SDS011;71753;48.772;9.148;2023-11-22T00:18:58;4.17;;;2.90;;
6479;SDS011;71753;48.772;9.148;2023-11-22T00:21:25;2.90;;;2.60;;
6479;SDS011;71753;48.772;9.148;2023-11-22T00:23:51;3.90;;;2.67;;
6479;SDS011;71753;48.772;9.148;2023-11-22T00:26:18;3.37;;;2.53;;
6479;SDS011;71753;48.772;9.148;2023-11-22T00:28:45;3.37;;;2.57;;
6479;SDS011;71753;48.772;9.148;2023-11-22T00:31:12;4.00;;;2.73;;
6479;SDS011;71753;48.772;9.148;2023-11-22T00:33:39;4.13;;;2.97;;
6479;SDS011;71753;48.772;9.148;2023-11-22T00:36:08;4.10;;;2.90;;
6479;SDS011;71753;48.772;9.148;2023-11-22T00:38:34;4.30;;;2.83;;
6479;SDS011;71753;48.772;9.148;2023-11-22T00:41:02;4.20;;;2.70;;
6479;SDS011;71753;48.772;9.148;2023-11-22T00:43:29;4.17;;;2.70;;
6479;SDS011;71753;48.772;9.148;2023-11-22T00:45:55;5.70;;;3.13;;
6479;SDS011;71753;48.772;9.148;2023-11-22T00:48:23;6.83;;;3.37;;
6479;SDS011;71753;48.772;9.148;2023-11-22T00:50:49;7.00;;;3.23;;
6479;SDS011;71753;48.772;9.148;2023-11-22T00:53:17;4.97;;;3.10;;
6479;SDS011;71753;48.772;9.148;2023-11-22T00:55:44;6.00;;;3.37;;
6479;SDS011;71753;48.772;9.148;2023-11-22T00:58:11;5.40;;;3.50;;
6479;SDS011;71753;48.772;9.148;2023-11-22T01:00:37;5.53;;;3.50;;
6479;SDS011;71753;48.772;9.148;2023-11-22T01:03:04;5.77;;;3.27;;
6479;SDS011;71753;48.772;9.148;2023-11-22T01:05:31;4.00;;;2.87;;
6479;SDS011;71753;48.772;9.148;2023-11-22T01:07:57;6.27;;;3.87;;
6479;SDS011;71753;48.772;9.148;2023-11-22T01:10:25;4.60;;;3.50;;
6479;SDS011;71753;48.772;9.148;2023-11-22T01:12:52;5.83;;;3.70;;
6479;SDS011;71753;48.772;9.148;2023-11-22T01:15:19;6.00;;;3.37;;
6479;SDS011;71753;48.772;9.148;2023-11-22T01:17:46;6.37;;;3.53;;
6479;SDS011;71753;48.772;9.148;2023-11-22T01:20:13;6.07;;;3.47;;
6479;SDS011;71753;48.772;9.148;2023-11-22T01:22:40;4.90;;;3.30;;
6479;SDS011;71753;48.772;9.148;2023-11-22T01:25:07;4.07;;;2.77;;
6479;SDS011;71753;48.772;9.148;2023-11-22T01:27:35;6.47;;;3.33;;
6479;SDS011;71753;48.772;9.148;2023-11-22T01:30:02;5.10;;;3.30;;
6479;SDS011;71753;48.772;9.148;2023-11-22T01:32:32;5.73;;;3.10;;
6479;SDS011;71753;48.772;9.148;2023-11-22T01:34:59;6.67;;;3.60;;
6479;SDS011;71753;48.772;9.148;2023-11-22T01:37:26;5.10;;;3.27;;
6479;SDS011;71753;48.772;9.148;2023-11-22T01:39:53;5.87;;;3.10;;
6479;SDS011;71753;48.772;9.148;2023-11-22T01:42:20;4.17;;;3.30;;
6479;SDS011;71753;48.772;9.148;2023-11-22T01:44:50;6.23;;;3.60;;
6479;SDS011;71753;48.772;9.148;2023-11-22T01:47:17;5.23;;;3.47;;
6479;SDS011;71753;48.772;9.148;2023-11-22T01:49:44;4.30;;;2.80;;
6479;SDS011;71753;48.772;9.148;2023-11-22T01:52:12;5.73;;;3.23;;
6479;SDS011;71753;48.772;9.148;2023-11-22T01:54:39;4.37;;;3.27;;
6479;SDS011;71753;48.772;9.148;2023-11-22T01:57:07;3.63;;;2.90;;
6479;SDS011;71753;48.772;9.148;2023-11-22T01:59:35;4.50;;;2.97;;
6479;SDS011;71753;48.772;9.148;2023-11-22T02:02:04;4.20;;;2.87;;
6479;SDS011;71753;48.772;9.148;2023-11-22T02:04:31;4.33;;;2.70;;
6479;SDS011;71753;48.772;9.148;2023-11-22T02:06:58;4.53;;;3.13;;
6479;SDS011;71753;48.772;9.148;2023-11-22T02:09:25;3.87;;;2.87;;
6479;SDS011;71753;48.772;9.148;2023-11-22T02:11:51;4.40;;;2.57;;
6479;SDS011;71753;48.772;9.148;2023-11-22T02:14:18;4.33;;;2.97;;
6479;SDS011;71753;48.772;9.148;2023-11-22T02:16:44;4.73;;;3.20;;
6479;SDS011;71753;48.772;9.148;2023-11-22T02:19:13;4.90;;;2.70;;
6479;SDS011;71753;48.772;9.148;2023-11-22T02:21:41;3.93;;;2.87;;
6479;SDS011;71753;48.772;9.148;2023-11-22T02:24:09;4.23;;;2.90;;
6479;SDS011;71753;48.772;9.148;2023-11-22T02:26:36;4.70;;;3.03;;
6479;SDS011;71753;48.772;9.148;2023-11-22T02:29:04;4.30;;;3.00;;
6479;SDS011;71753;48.772;9.148;2023-11-22T02:31:30;3.23;;;2.50;;
6479;SDS011;71753;48.772;9.148;2023-11-22T02:33:59;4.03;;;2.60;;
6479;SDS011;71753;48.772;9.148;2023-11-22T02:36:25;4.43;;;2.70;;
6479;SDS011;71753;48.772;9.148;2023-11-22T02:38:52;3.40;;;2.60;;
6479;SDS011;71753;48.772;9.148;2023-11-22T02:41:20;3.40;;;2.60;;
6479;SDS011;71753;48.772;9.148;2023-11-22T02:43:47;4.23;;;2.90;;
6479;SDS011;71753;48.772;9.148;2023-11-22T02:46:13;3.83;;;2.80;;
6479;SDS011;71753;48.772;9.148;2023-11-22T02:48:40;3.90;;;2.50;;
6479;SDS011;71753;48.772;9.148;2023-11-22T02:51:07;4.07;;;2.70;;
6479;SDS011;71753;48.772;9.148;2023-11-22T02:53:33;3.53;;;2.77;;
6479;SDS011;71753;48.772;9.148;2023-11-22T02:56:00;5.20;;;3.20;;
6479;SDS011;71753;48.772;9.148;2023-11-22T02:58:28;4.87;;;3.00;;
6479;SDS011;71753;48.772;9.148;2023-11-22T03:00:55;4.73;;;3.30;;
6479;SDS011;71753;48.772;9.148;2023-11-22T03:03:22;4.90;;;2.97;;
6479;SDS011;71753;48.772;9.148;2023-11-22T03:05:49;4.20;;;2.90;;
6479;SDS011;71753;48.772;9.148;2023-11-22T03:08:16;4.87;;;3.30;;
6479;SDS011;71753;48.772;9.148;2023-11-22T03:10:43;4.47;;;3.17;;
6479;SDS011;71753;48.772;9.148;2023-11-22T03:13:09;3.90;;;2.70;;
6479;SDS011;71753;48.772;9.148;2023-11-22T03:15:37;5.97;;;3.20;;
6479;SDS011;71753;48.772;9.148;2023-11-22T03:18:04;4.27;;;3.03;;
6479;SDS011;71753;48.772;9.148;2023-11-22T03:20:31;6.33;;;3.50;;
6479;SDS011;71753;48.772;9.148;2023-11-22T03:22:57;7.20;;;3.20;;
6479;SDS011;71753;48.772;9.148;2023-11-22T03:25:25;4.20;;;2.90;;
6479;SDS011;71753;48.772;9.148;2023-11-22T03:27:51;4.20;;;2.87;;
6479;SDS011;71753;48.772;9.148;2023-11-22T03:30:18;4.40;;;3.33;;
6479;SDS011;71753;48.772;9.148;2023-11-22T03:32:47;4.17;;;3.00;;
6479;SDS011;71753;48.772;9.148;2023-11-22T03:35:14;4.97;;;3.17;;
6479;SDS011;71753;48.772;9.148;2023-11-22T03:37:41;5.23;;;3.50;;
6479;SDS011;71753;48.772;9.148;2023-11-22T03:40:08;4.13;;;3.10;;
6479;SDS011;71753;48.772;9.148;2023-11-22T03:42:36;5.40;;;3.27;;
6479;SDS011;71753;48.772;9.148;2023-11-22T03:45:04;4.00;;;3.17;;
6479;SDS011;71753;48.772;9.148;2023-11-22T03:47:32;6.67;;;3.20;;
6479;SDS011;71753;48.772;9.148;2023-11-22T03:50:00;5.07;;;3.20;;
6479;SDS011;71753;48.772;9.148;2023-11-22T03:52:26;5.13;;;3.40;;
6479;SDS011;71753;48.772;9.148;2023-11-22T03:54:53;4.13;;;2.87;;
6479;SDS011;71753;48.772;9.148;2023-11-22T03:57:20;5.23;;;3.30;;
6479;SDS011;71753;48.772;9.148;2023-11-22T03:59:46;4.07;;;3.27;;
6479;SDS011;71753;48.772;9.148;2023-11-22T04:02:13;5.10;;;3.47;;
6479;SDS011;71753;48.772;9.148;2023-11-22T04:04:40;4.43;;;3.13;;
6479;SDS011;71753;48.772;9.148;2023-11-22T04:07:08;6.00;;;3.70;;
6479;SDS011;71753;48.772;9.148;2023-11-22T04:09:34;4.90;;;3.43;;
6479;SDS011;71753;48.772;9.148;2023-11-22T04:12:01;5.50;;;3.47;;
6479;SDS011;71753;48.772;9.148;2023-11-22T04:14:29;5.37;;;3.43;;
6479;SDS011;71753;48.772;9.148;2023-11-22T04:16:55;4.80;;;3.33;;
6479;SDS011;71753;48.772;9.148;2023-11-22T04:19:22;5.23;;;3.33;;
6479;SDS011;71753;48.772;9.148;2023-11-22T04:21:48;5.00;;;3.40;;
6479;SDS011;71753;48.772;9.148;2023-11-22T04:24:16;4.97;;;3.17;;
6479;SDS011;71753;48.772;9.148;2023-11-22T04:26:43;5.03;;;3.03;;
6479;SDS011;71753;48.772;9.148;2023-11-22T04:29:10;4.60;;;3.40;;
6479;SDS011;71753;48.772;9.148;2023-11-22T04:31:37;4.43;;;3.27;;
6479;SDS011;71753;48.772;9.148;2023-11-22T04:34:03;5.57;;;3.47;;
6479;SDS011;71753;48.772;9.148;2023-11-22T04:36:31;6.00;;;3.60;;
6479;SDS011;71753;48.772;9.148;2023-11-22T04:38:57;5.67;;;3.80;;
6479;SDS011;71753;48.772;9.148;2023-11-22T04:41:25;5.20;;;3.23;;
6479;SDS011;71753;48.772;9.148;2023-11-22T04:43:52;6.53;;;3.20;;
6479;SDS011;71753;48.772;9.148;2023-11-22T04:46:18;5.20;;;3.33;;
6479;SDS011;71753;48.772;9.148;2023-11-22T04:48:45;4.50;;;3.10;;
6479;SDS011;71753;48.772;9.148;2023-11-22T04:51:16;4.87;;;3.10;;
6479;SDS011;71753;48.772;9.148;2023-11-22T04:53:43;4.83;;;3.23;;
6479;SDS011;71753;48.772;9.148;2023-11-22T04:56:10;6.07;;;3.40;;
6479;SDS011;71753;48.772;9.148;2023-11-22T04:58:38;4.90;;;3.37;;
6479;SDS011;71753;48.772;9.148;2023-11-22T05:01:05;4.93;;;3.20;;
6479;SDS011;71753;48.772;9.148;2023-11-22T05:03:31;4.50;;;3.37;;
6479;SDS011;71753;48.772;9.148;2023-11-22T05:05:58;4.47;;;3.20;;
6479;SDS011;71753;48.772;9.148;2023-11-22T05:08:25;4.63;;;3.20;;
6479;SDS011;71753;48.772;9.148;2023-11-22T05:10:52;5.23;;;3.10;;
6479;SDS011;71753;48.772;9.148;2023-11-22T05:13:19;4.13;;;3.20;;
6479;SDS011;71753;48.772;9.148;2023-11-22T05:15:47;6.87;;;4.40;;
6479;SDS011;71753;48.772;9.148;2023-11-22T05:18:14;7.27;;;4.03;;
6479;SDS011;71753;48.772;9.148;2023-11-22T05:20:40;4.87;;;3.60;;
6479;SDS011;71753;48.772;9.148;2023-11-22T05:23:07;4.90;;;3.53;;
6479;SDS011;71753;48.772;9.148;2023-11-22T05:25:33;3.90;;;2.73;;
6479;SDS011;71753;48.772;9.148;2023-11-22T05:28:01;5.13;;;3.17;;
6479;SDS011;71753;48.772;9.148;2023-11-22T05:30:28;4.67;;;3.10;;
6479;SDS011;71753;48.772;9.148;2023-11-22T05:32:56;5.50;;;3.37;;
6479;SDS011;71753;48.772;9.148;2023-11-22T05:35:23;4.40;;;3.00;;
6479;SDS011;71753;48.772;9.148;2023-11-22T05:37:49;4.30;;;3.13;;
6479;SDS011;71753;48.772;9.148;2023-11-22T05:40:16;4.53;;;3.03;;
6479;SDS011;71753;48.772;9.148;2023-11-22T05:42:43;3.37;;;2.80;;
6479;SDS011;71753;48.772;9.148;2023-11-22T05:45:09;4.50;;;3.23;;
6479;SDS011;71753;48.772;9.148;2023-11-22T05:47:36;5.10;;;3.27;;
6479;SDS011;71753;48.772;9.148;2023-11-22T05:50:05;3.63;;;2.80;;
6479;SDS011;71753;48.772;9.148;2023-11-22T05:52:33;4.33;;;2.90;;
6479;SDS011;71753;48.772;9.148;2023-11-22T05:55:00;4.73;;;3.07;;
6479;SDS011;71753;48.772;9.148;2023-11-22T05:57:28;5.50;;;3.33;;
6479;SDS011;71753;48.772;9.148;2023-11-22T05:59:55;3.70;;;2.77;;
6479;SDS011;71753;48.772;9.148;2023-11-22T06:02:22;4.17;;;3.20;;
6479;SDS011;71753;48.772;9.148;2023-11-22T06:04:49;4.00;;;2.77;;
6479;SDS011;71753;48.772;9.148;2023-11-22T06:07:17;4.13;;;2.90;;
6479;SDS011;71753;48.772;9.148;2023-11-22T06:09:43;4.77;;;2.90;;
6479;SDS011;71753;48.772;9.148;2023-11-22T06:12:10;4.97;;;3.20;;
6479;SDS011;71753;48.772;9.148;2023-11-22T06:14:37;5.10;;;3.37;;
6479;SDS011;71753;48.772;9.148;2023-11-22T06:17:03;4.17;;;3.00;;
6479;SDS011;71753;48.772;9.148;2023-11-22T06:19:30;5.63;;;3.40;;
6479;SDS011;71753;48.772;9.148;2023-11-22T06:21:57;4.30;;;3.07;;
6479;SDS011;71753;48.772;9.148;2023-11-22T06:24:25;4.33;;;2.93;;
6479;SDS011;71753;48.772;9.148;2023-11-22T06:26:51;4.20;;;2.73;;
6479;SDS011;71753;48.772;9.148;2023-11-22T06:29:18;4.27;;;3.00;;
6479;SDS011;71753;48.772;9.148;2023-11-22T06:31:45;3.63;;;2.77;;
6479;SDS011;71753;48.772;9.148;2023-11-22T06:34:11;4.37;;;2.87;;
6479;SDS011;71753;48.772;9.148;2023-11-22T06:36:38;3.77;;;2.63;;
6479;SDS011;71753;48.772;9.148;2023-11-22T06:39:05;3.57;;;2.60;;
6479;SDS011;71753;48.772;9.148;2023-11-22T06:41:35;4.17;;;2.90;;
6479;SDS011;71753;48.772;9.148;2023-11-22T06:44:02;4.67;;;2.77;;
6479;SDS011;71753;48.772;9.148;2023-11-22T06:46:29;4.83;;;2.80;;
6479;SDS011;71753;48.772;9.148;2023-11-22T06:48:55;5.70;;;2.90;;
6479;SDS011;71753;48.772;9.148;2023-11-22T06:51:22;4.27;;;2.73;;
6479;SDS011;71753;48.772;9.148;2023-11-22T06:53:49;4.27;;;2.73;;
6479;SDS011;71753;48.772;9.148;2023-11-22T06:56:16;6.13;;;3.13;;
6479;SDS011;71753;48.772;9.148;2023-11-22T06:58:45;3.47;;;2.70;;
6479;SDS011;71753;48.772;9.148;2023-11-22T07:01:11;4.23;;;2.77;;
6479;SDS011;71753;48.772;9.148;2023-11-22T07:03:38;3.57;;;2.80;;
6479;SDS011;71753;48.772;9.148;2023-11-22T07:06:05;5.23;;;3.00;;
6479;SDS011;71753;48.772;9.148;2023-11-22T07:08:32;3.10;;;2.53;;
6479;SDS011;71753;48.772;9.148;2023-11-22T07:11:00;3.67;;;2.80;;
6479;SDS011;71753;48.772;9.148;2023-11-22T07:13:28;3.87;;;2.90;;
6479;SDS011;71753;48.772;9.148;2023-11-22T07:15:56;4.57;;;2.90;;
6479;SDS011;71753;48.772;9.148;2023-11-22T07:18:23;3.67;;;2.77;;
6479;SDS011;71753;48.772;9.148;2023-11-22T07:20:50;3.63;;;2.50;;
6479;SDS011;71753;48.772;9.148;2023-11-22T07:23:18;4.73;;;2.80;;
6479;SDS011;71753;48.772;9.148;2023-11-22T07:25:46;5.10;;;2.43;;
6479;SDS011;71753;48.772;9.148;2023-11-22T07:28:13;3.83;;;2.67;;
6479;SDS011;71753;48.772;9.148;2023-11-22T07:30:39;4.03;;;2.63;;
6479;SDS011;71753;48.772;9.148;2023-11-22T07:33:08;3.83;;;2.67;;
6479;SDS011;71753;48.772;9.148;2023-11-22T07:35:36;3.07;;;2.30;;
6479;SDS011;71753;48.772;9.148;2023-11-22T07:38:04;4.13;;;2.57;;
6479;SDS011;71753;48.772;9.148;2023-11-22T07:40:33;3.97;;;2.40;;
6479;SDS011;71753;48.772;9.148;2023-11-22T07:43:00;3.23;;;2.40;;
6479;SDS011;71753;48.772;9.148;2023-11-22T07:45:28;2.90;;;2.40;;
6479;SDS011;71753;48.772;9.148;2023-11-22T07:47:54;4.00;;;2.53;;
6479;SDS011;71753;48.772;9.148;2023-11-22T07:50:25;3.07;;;2.40;;
6479;SDS011;71753;48.772;9.148;2023-11-22T07:52:52;2.67;;;2.03;;
6479;SDS011;71753;48.772;9.148;2023-11-22T07:55:19;2.93;;;2.20;;
6479;SDS011;71753;48.772;9.148;2023-11-22T07:57:47;2.63;;;2.27;;
6479;SDS011;71753;48.772;9.148;2023-11-22T08:00:16;3.83;;;2.60;;
6479;SDS011;71753;48.772;9.148;2023-11-22T08:02:44;3.27;;;2.30;;
6479;SDS011;71753;48.772;9.148;2023-11-22T08:05:11;3.53;;;2.50;;
6479;SDS011;71753;48.772;9.148;2023-11-22T08:07:41;3.07;;;2.40;;
6479;SDS011;71753;48.772;9.148;2023-11-22T08:10:11;4.10;;;2.27;;
6479;SDS011;71753;48.772;9.148;2023-11-22T08:12:44;3.97;;;2.77;;
6479;SDS011;71753;48.772;9.148;2023-11-22T08:15:12;4.40;;;2.77;;
6479;SDS011;71753;48.772;9.148;2023-11-22T08:17:40;3.87;;;2.50;;
6479;SDS011;71753;48.772;9.148;2023-11-22T08:20:08;3.50;;;2.60;;
6479;SDS011;71753;48.772;9.148;2023-11-22T08:22:38;2.60;;;2.30;;
6479;SDS011;71753;48.772;9.148;2023-11-22T08:25:07;3.27;;;2.50;;
6479;SDS011;71753;48.772;9.148;2023-11-22T08:27:37;3.93;;;2.60;;
6479;SDS011;71753;48.772;9.148;2023-11-22T08:30:04;4.00;;;2.60;;
6479;SDS011;71753;48.772;9.148;2023-11-22T08:32:34;4.23;;;2.20;;
6479;SDS011;71753;48.772;9.148;2023-11-22T08:35:01;3.73;;;2.47;;
6479;SDS011;71753;48.772;9.148;2023-11-22T08:37:32;3.17;;;2.40;;
6479;SDS011;71753;48.772;9.148;2023-11-22T08:40:00;3.30;;;2.37;;
6479;SDS011;71753;48.772;9.148;2023-11-22T08:42:28;3.20;;;2.23;;
6479;SDS011;71753;48.772;9.148;2023-11-22T08:44:54;3.17;;;2.43;;
6479;SDS011;71753;48.772;9.148;2023-11-22T08:47:21;3.73;;;2.97;;
6479;SDS011;71753;48.772;9.148;2023-11-22T08:49:48;3.43;;;2.43;;
6479;SDS011;71753;48.772;9.148;2023-11-22T08:52:14;4.90;;;2.80;;
6479;SDS011;71753;48.772;9.148;2023-11-22T08:54:41;2.93;;;2.30;;
6479;SDS011;71753;48.772;9.148;2023-11-22T08:57:08;3.93;;;2.43;;
6479;SDS011;71753;48.772;9.148;2023-11-22T08:59:38;3.07;;;2.50;;
6479;SDS011;71753;48.772;9.148;2023-11-22T09:02:05;3.83;;;2.67;;
6479;SDS011;71753;48.772;9.148;2023-11-22T09:04:32;3.40;;;2.60;;
6479;SDS011;71753;48.772;9.148;2023-11-22T09:07:00;3.13;;;2.60;;
6479;SDS011;71753;48.772;9.148;2023-11-22T09:09:27;3.50;;;2.63;;
6479;SDS011;71753;48.772;9.148;2023-11-22T09:11:56;4.47;;;2.43;;
6479;SDS011;71753;48.772;9.148;2023-11-22T09:14:22;4.40;;;2.73;;
6479;SDS011;71753;48.772;9.148;2023-11-22T09:16:51;4.00;;;2.40;;
6479;SDS011;71753;48.772;9.148;2023-11-22T09:19:19;3.90;;;2.90;;
6479;SDS011;71753;48.772;9.148;2023-11-22T09:21:46;3.40;;;2.77;;
6479;SDS011;71753;48.772;9.148;2023-11-22T09:24:12;4.33;;;2.83;;
6479;SDS011;71753;48.772;9.148;2023-11-22T09:26:39;4.47;;;2.87;;
6479;SDS011;71753;48.772;9.148;2023-11-22T09:29:06;4.27;;;2.70;;
6479;SDS011;71753;48.772;9.148;2023-11-22T09:31:34;3.80;;;2.73;;
6479;SDS011;71753;48.772;9.148;2023-11-22T09:34:02;5.50;;;3.37;;
6479;SDS011;71753;48.772;9.148;2023-11-22T09:36:30;5.83;;;3.13;;
6479;SDS011;71753;48.772;9.148;2023-11-22T09:38:59;5.27;;;3.23;;
6479;SDS011;71753;48.772;9.148;2023-11-22T09:41:28;5.00;;;3.00;;
6479;SDS011;71753;48.772;9.148;2023-11-22T09:43:54;4.10;;;2.93;;
6479;SDS011;71753;48.772;9.148;2023-11-22T09:46:22;5.43;;;3.33;;
6479;SDS011;71753;48.772;9.148;2023-11-22T09:48:49;6.37;;;3.00;;
6479;SDS011;71753;48.772;9.148;2023-11-22T09:51:21;5.57;;;3.13;;
6479;SDS011;71753;48.772;9.148;2023-11-22T09:53:52;5.40;;;3.50;;
6479;SDS011;71753;48.772;9.148;2023-11-22T09:56:21;3.83;;;2.67;;
6479;SDS011;71753;48.772;9.148;2023-11-22T09:58:51;5.07;;;2.73;;
6479;SDS011;71753;48.772;9.148;2023-11-22T10:01:21;6.10;;;3.20;;
6479;SDS011;71753;48.772;9.148;2023-11-22T10:03:48;4.63;;;3.13;;
6479;SDS011;71753;48.772;9.148;2023-11-22T10:06:15;5.77;;;3.30;;
6479;SDS011;71753;48.772;9.148;2023-11-22T10:08:45;3.93;;;2.93;;
6479;SDS011;71753;48.772;9.148;2023-11-22T10:11:14;4.53;;;3.20;;
6479;SDS011;71753;48.772;9.148;2023-11-22T10:13:42;4.77;;;2.97;;
6479;SDS011;71753;48.772;9.148;2023-11-22T10:16:11;4.63;;;3.30;;
6479;SDS011;71753;48.772;9.148;2023-11-22T10:18:41;4.80;;;3.20;;
6479;SDS011;71753;48.772;9.148;2023-11-22T10:21:18;5.20;;;3.30;;
6479;SDS011;71753;48.772;9.148;2023-11-22T10:23:48;6.50;;;3.00;;
6479;SDS011;71753;48.772;9.148;2023-11-22T10:26:16;5.37;;;3.50;;
6479;SDS011;71753;48.772;9.148;2023-11-22T10:28:43;5.10;;;3.30;;
6479;SDS011;71753;48.772;9.148;2023-11-22T10:31:10;5.60;;;3.33;;
6479;SDS011;71753;48.772;9.148;2023-11-22T10:33:40;5.20;;;3.13;;
6479;SDS011;71753;48.772;9.148;2023-11-22T10:36:09;4.77;;;3.00;;
6479;SDS011;71753;48.772;9.148;2023-11-22T10:38:37;5.27;;;3.13;;
6479;SDS011;71753;48.772;9.148;2023-11-22T10:41:05;5.10;;;3.10;;
6479;SDS011;71753;48.772;9.148;2023-11-22T10:43:34;5.53;;;3.10;;
6479;SDS011;71753;48.772;9.148;2023-11-22T10:46:01;6.60;;;3.10;;
6479;SDS011;71753;48.772;9.148;2023-11-22T10:48:29;5.83;;;3.50;;
6479;SDS011;71753;48.772;9.148;2023-11-22T10:50:58;6.63;;;3.60;;
6479;SDS011;71753;48.772;9.148;2023-11-22T10:53:30;4.90;;;3.30;;
6479;SDS011;71753;48.772;9.148;2023-11-22T10:56:01;5.13;;;3.27;;
6479;SDS011;71753;48.772;9.148;2023-11-22T10:58:33;5.30;;;3.07;;
6479;SDS011;71753;48.772;9.148;2023-11-22T11:01:04;5.83;;;3.57;;
6479;SDS011;71753;48.772;9.148;2023-11-22T11:03:32;4.97;;;3.67;;
6479;SDS011;71753;48.772;9.148;2023-11-22T11:06:06;6.27;;;3.87;;
6479;SDS011;71753;48.772;9.148;2023-11-22T11:08:35;5.67;;;3.47;;
6479;SDS011;71753;48.772;9.148;2023-11-22T11:11:04;5.97;;;3.40;;
6479;SDS011;71753;48.772;9.148;2023-11-22T11:13:32;7.13;;;3.80;;
6479;SDS011;71753;48.772;9.148;2023-11-22T11:16:00;4.87;;;3.33;;
6479;SDS011;71753;48.772;9.148;2023-11-22T11:18:27;4.87;;;3.43;;
6479;SDS011;71753;48.772;9.148;2023-11-22T11:20:55;5.50;;;3.50;;
6479;SDS011;71753;48.772;9.148;2023-11-22T11:23:24;4.00;;;2.83;;
6479;SDS011;71753;48.772;9.148;2023-11-22T11:25:53;5.90;;;3.50;;
6479;SDS011;71753;48.772;9.148;2023-11-22T11:28:21;6.57;;;3.37;;
6479;SDS011;71753;48.772;9.148;2023-11-22T11:30:52;5.33;;;3.33;;
6479;SDS011;71753;48.772;9.148;2023-11-22T11:33:20;6.70;;;3.70;;
6479;SDS011;71753;48.772;9.148;2023-11-22T11:35:54;5.90;;;3.90;;
6479;SDS011;71753;48.772;9.148;2023-11-22T11:38:27;6.40;;;3.73;;
6479;SDS011;71753;48.772;9.148;2023-11-22T11:40:58;4.43;;;3.37;;
6479;SDS011;71753;48.772;9.148;2023-11-22T11:43:39;5.07;;;3.50;;
6479;SDS011;71753;48.772;9.148;2023-11-22T11:46:07;5.90;;;3.90;;
6479;SDS011;71753;48.772;9.148;2023-11-22T11:48:35;6.40;;;3.47;;
6479;SDS011;71753;48.772;9.148;2023-11-22T11:51:01;5.23;;;3.40;;
6479;SDS011;71753;48.772;9.148;2023-11-22T11:53:28;6.23;;;3.20;;
6479;SDS011;71753;48.772;9.148;2023-11-22T11:55:56;4.37;;;3.10;;
6479;SDS011;71753;48.772;9.148;2023-11-22T11:58:23;5.23;;;3.30;;
6479;SDS011;71753;48.772;9.148;2023-11-22T12:00:50;5.33;;;3.47;;
6479;SDS011;71753;48.772;9.148;2023-11-22T12:03:20;4.33;;;3.10;;
6479;SDS011;71753;48.772;9.148;2023-11-22T12:05:47;4.93;;;3.40;;
6479;SDS011;71753;48.772;9.148;2023-11-22T12:08:15;5.13;;;3.40;;
6479;SDS011;71753;48.772;9.148;2023-11-22T12:10:42;6.67;;;3.83;;
6479;SDS011;71753;48.772;9.148;2023-11-22T12:13:09;4.80;;;3.30;;
6479;SDS011;71753;48.772;9.148;2023-11-22T12:15:36;4.70;;;3.30;;
6479;SDS011;71753;48.772;9.148;2023-11-22T12:18:03;5.43;;;3.50;;
6479;SDS011;71753;48.772;9.148;2023-11-22T12:20:31;4.00;;;2.93;;
6479;SDS011;71753;48.772;9.148;2023-11-22T12:22:58;5.87;;;3.53;;
6479;SDS011;71753;48.772;9.148;2023-11-22T12:25:26;7.83;;;3.50;;
6479;SDS011;71753;48.772;9.148;2023-11-22T12:27:54;5.43;;;3.60;;
6479;SDS011;71753;48.772;9.148;2023-11-22T12:30:30;6.67;;;3.70;;
6479;SDS011;71753;48.772;9.148;2023-11-22T12:33:01;5.77;;;3.47;;
6479;SDS011;71753;48.772;9.148;2023-11-22T12:35:29;6.63;;;3.30;;
6479;SDS011;71753;48.772;9.148;2023-11-22T12:37:59;5.80;;;3.33;;
6479;SDS011;71753;48.772;9.148;2023-11-22T12:40:27;5.10;;;3.80;;
6479;SDS011;71753;48.772;9.148;2023-11-22T12:42:56;5.57;;;3.70;;
6479;SDS011;71753;48.772;9.148;2023-11-22T12:45:24;5.87;;;3.70;;
6479;SDS011;71753;48.772;9.148;2023-11-22T12:47:53;6.07;;;3.43;;
6479;SDS011;71753;48.772;9.148;2023-11-22T12:50:31;6.87;;;3.90;;
6479;SDS011;71753;48.772;9.148;2023-11-22T12:53:07;6.00;;;3.60;;
6479;SDS011;71753;48.772;9.148;2023-11-22T12:55:34;7.63;;;3.90;;
6479;SDS011;71753;48.772;9.148;2023-11-22T12:58:01;7.47;;;4.00;;
6479;SDS011;71753;48.772;9.148;2023-11-22T13:00:28;5.60;;;3.57;;
6479;SDS011;71753;48.772;9.148;2023-11-22T13:02:55;4.83;;;3.67;;
6479;SDS011;71753;48.772;9.148;2023-11-22T13:05:22;6.10;;;3.80;;
6479;SDS011;71753;48.772;9.148;2023-11-22T13:07:51;6.17;;;3.90;;
6479;SDS011;71753;48.772;9.148;2023-11-22T13:10:18;6.43;;;3.83;;
6479;SDS011;71753;48.772;9.148;2023-11-22T13:12:50;6.07;;;3.70;;
6479;SDS011;71753;48.772;9.148;2023-11-22T13:15:18;4.67;;;3.33;;
6479;SDS011;71753;48.772;9.148;2023-11-22T13:17:48;5.57;;;3.63;;
6479;SDS011;71753;48.772;9.148;2023-11-22T13:20:15;5.60;;;3.60;;
6479;SDS011;71753;48.772;9.148;2023-11-22T13:22:45;5.77;;;3.80;;
6479;SDS011;71753;48.772;9.148;2023-11-22T13:25:13;5.90;;;3.70;;
6479;SDS011;71753;48.772;9.148;2023-11-22T13:27:42;7.47;;;4.07;;
6479;SDS011;71753;48.772;9.148;2023-11-22T13:30:09;4.43;;;3.57;;
6479;SDS011;71753;48.772;9.148;2023-11-22T13:32:36;6.03;;;4.00;;
6479;SDS011;71753;48.772;9.148;2023-11-22T13:35:06;6.40;;;3.80;;
6479;SDS011;71753;48.772;9.148;2023-11-22T13:37:39;5.23;;;3.63;;
6479;SDS011;71753;48.772;9.148;2023-11-22T13:40:08;5.20;;;3.77;;
6479;SDS011;71753;48.772;9.148;2023-11-22T13:42:41;7.00;;;4.23;;
6479;SDS011;71753;48.772;9.148;2023-11-22T13:45:09;6.20;;;3.80;;
6479;SDS011;71753;48.772;9.148;2023-11-22T13:47:37;5.37;;;3.60;;
6479;SDS011;71753;48.772;9.148;2023-11-22T13:50:04;6.20;;;3.90;;
6479;SDS011;71753;48.772;9.148;2023-11-22T13:52:31;7.07;;;4.50;;
6479;SDS011;71753;48.772;9.148;2023-11-22T13:54:58;5.77;;;4.03;;
6479;SDS011;71753;48.772;9.148;2023-11-22T13:57:26;6.60;;;3.80;;
6479;SDS011;71753;48.772;9.148;2023-11-22T13:59:54;5.43;;;3.60;;
6479;SDS011;71753;48.772;9.148;2023-11-22T14:02:20;6.37;;;4.10;;
6479;SDS011;71753;48.772;9.148;2023-11-22T14:04:47;7.07;;;4.23;;
6479;SDS011;71753;48.772;9.148;2023-11-22T14:07:13;5.53;;;3.37;;
6479;SDS011;71753;48.772;9.148;2023-11-22T14:09:40;5.60;;;3.80;;
6479;SDS011;71753;48.772;9.148;2023-11-22T14:12:07;6.80;;;4.13;;
6479;SDS011;71753;48.772;9.148;2023-11-22T14:14:33;6.53;;;4.07;;
6479;SDS011;71753;48.772;9.148;2023-11-22T14:17:02;7.70;;;4.07;;
6479;SDS011;71753;48.772;9.148;2023-11-22T14:19:27;6.37;;;3.97;;
6479;SDS011;71753;48.772;9.148;2023-11-22T14:21:54;6.27;;;3.83;;
6479;SDS011;71753;48.772;9.148;2023-11-22T14:24:21;6.17;;;4.00;;
6479;SDS011;71753;48.772;9.148;2023-11-22T14:26:47;6.77;;;3.73;;
6479;SDS011;71753;48.772;9.148;2023-11-22T14:29:16;6.10;;;4.30;;
6479;SDS011;71753;48.772;9.148;2023-11-22T14:31:42;5.80;;;3.60;;
6479;SDS011;71753;48.772;9.148;2023-11-22T14:34:11;7.27;;;3.93;;
6479;SDS011;71753;48.772;9.148;2023-11-22T14:36:38;5.93;;;3.50;;
6479;SDS011;71753;48.772;9.148;2023-11-22T14:39:04;5.73;;;3.87;;
6479;SDS011;71753;48.772;9.148;2023-11-22T14:41:32;5.70;;;3.90;;
6479;SDS011;71753;48.772;9.148;2023-11-22T14:44:00;5.17;;;3.73;;
6479;SDS011;71753;48.772;9.148;2023-11-22T14:46:27;6.63;;;3.60;;
6479;SDS011;71753;48.772;9.148;2023-11-22T14:48:54;5.80;;;3.87;;
6479;SDS011;71753;48.772;9.148;2023-11-22T14:51:22;7.07;;;4.27;;
6479;SDS011;71753;48.772;9.148;2023-11-22T14:53:48;6.17;;;3.63;;
6479;SDS011;71753;48.772;9.148;2023-11-22T14:56:15;5.80;;;4.17;;
6479;SDS011;71753;48.772;9.148;2023-11-22T14:58:42;5.67;;;3.70;;
6479;SDS011;71753;48.772;9.148;2023-11-22T15:01:10;6.57;;;3.80;;
6479;SDS011;71753;48.772;9.148;2023-11-22T15:03:37;6.93;;;3.97;;